Time;durP1;ratioP1;P1;durP2;ratioP2;P2;SDS_P1;SDS_P2;PMS_P1;PMS_P2;Temp;Humidity;BMP_temperature;BMP_pressure;BME280_temperature;BME280_humidity;BME280_pressure;Samples;Min_cycle;Max_cycle;Signal;HPM_P1;HPM_P2
2022/10/14 00:01:30;;;;;;;21.85;15.55;;;;;;;;;;2373341;56;21082;-79
2022/10/14 00:03:57;;;;;;;35.03;20.10;;;;;;;;;;2627661;52;21055;-75
2022/10/14 00:06:25;;;;;;;29.30;17.87;;;;;;;;;;2375114;56;21066;-78
2022/10/14 00:08:52;;;;;;;28.77;17.83;;;;;;;;;;2375423;56;21118;-78
2022/10/14 00:11:20;;;;;;;28.83;18.77;;;;;;;;;;2374139;56;21059;-77
2022/10/14 00:13:48;;;;;;;30.30;16.42;;;;;;;;;;2375419;56;21038;-75
2022/10/14 00:16:16;;;;;;;30.02;18.23;;;;;;;;;;2373955;56;21027;-77
2022/10/14 00:18:43;;;;;;;28.12;17.42;;;;;;;;;;2373433;56;21043;-77
2022/10/14 00:21:10;;;;;;;32.95;19.75;;;;;;;;;;2373718;56;21663;-77
2022/10/14 00:23:37;;;;;;;26.85;16.30;;;;;;;;;;2373553;56;21031;-77
2022/10/14 00:26:04;;;;;;;34.08;17.98;;;;;;;;;;2373324;56;21134;-77
2022/10/14 00:28:32;;;;;;;29.05;18.30;;;;;;;;;;2374449;56;21031;-77
2022/10/14 00:31:00;;;;;;;37.13;19.77;;;;;;;;;;2373649;56;21098;-77
2022/10/14 00:33:28;;;;;;;26.80;14.82;;;;;;;;;;2373520;56;21054;-77
2022/10/14 00:35:56;;;;;;;27.13;16.87;;;;;;;;;;2373426;56;21126;-77
2022/10/14 00:38:23;;;;;;;33.40;19.42;;;;;;;;;;2373300;56;21079;-77
2022/10/14 00:40:50;;;;;;;32.25;18.58;;;;;;;;;;2373612;56;21110;-77
2022/10/14 00:43:17;;;;;;;30.23;18.62;;;;;;;;;;2373097;56;21054;-77
2022/10/14 00:45:44;;;;;;;36.90;20.70;;;;;;;;;;2365806;54;21095;-77
2022/10/14 00:48:12;;;;;;;33.80;20.52;;;;;;;;;;2318003;54;21032;-77
2022/10/14 00:50:41;;;;;;;31.17;18.98;;;;;;;;;;2350065;54;21050;-76
2022/10/14 00:53:09;;;;;;;27.62;18.02;;;;;;;;;;2311852;58;21120;-77
2022/10/14 00:55:37;;;;;;;33.40;19.08;;;;;;;;;;2312978;58;21749;-77
2022/10/14 00:58:04;;;;;;;33.40;19.73;;;;;;;;;;2313304;58;21052;-77
2022/10/14 01:00:32;;;;;;;32.45;20.25;;;;;;;;;;2312310;58;21048;-77
2022/10/14 01:02:59;;;;;;;31.42;20.17;;;;;;;;;;2313269;58;21056;-76
2022/10/14 01:05:30;;;;;;;35.25;20.37;;;;;;;;;;2313069;58;21048;-77
2022/10/14 01:08:03;;;;;;;30.05;19.25;;;;;;;;;;2311956;58;21051;-76
2022/10/14 01:10:33;;;;;;;33.80;20.90;;;;;;;;;;2313438;58;21044;-77
2022/10/14 01:13:08;;;;;;;35.20;21.12;;;;;;;;;;2313082;58;21063;-76
2022/10/14 01:15:38;;;;;;;33.40;20.30;;;;;;;;;;2313347;58;21052;-77
2022/10/14 01:18:14;;;;;;;35.97;20.92;;;;;;;;;;2313018;58;21060;-77
2022/10/14 01:20:56;;;;;;;34.45;21.40;;;;;;;;;;2312506;58;21554;-76
2022/10/14 01:23:32;;;;;;;35.65;20.62;;;;;;;;;;2312904;58;21060;-77
2022/10/14 01:26:03;;;;;;;40.08;21.83;;;;;;;;;;2312630;58;21578;-77
2022/10/14 01:28:33;;;;;;;36.30;21.62;;;;;;;;;;2429997;54;21136;-77
2022/10/14 01:31:01;;;;;;;38.45;23.40;;;;;;;;;;2313146;58;21045;-77
2022/10/14 01:33:34;;;;;;;43.22;24.70;;;;;;;;;;2316115;54;21131;-77
2022/10/14 01:36:03;;;;;;;42.28;24.33;;;;;;;;;;2312491;58;21642;-76
2022/10/14 01:38:31;;;;;;;43.30;23.20;;;;;;;;;;2341551;54;21104;-77
2022/10/14 01:41:02;;;;;;;42.53;23.62;;;;;;;;;;2312497;58;21080;-77
2022/10/14 01:43:31;;;;;;;39.28;22.83;;;;;;;;;;2313107;58;21072;-76
2022/10/14 01:46:00;;;;;;;41.90;24.23;;;;;;;;;;2322869;53;21199;-76
2022/10/14 01:48:29;;;;;;;36.90;23.15;;;;;;;;;;2329856;54;21057;-76
2022/10/14 01:50:58;;;;;;;41.95;23.12;;;;;;;;;;2312889;58;21131;-77
2022/10/14 01:53:29;;;;;;;39.95;22.55;;;;;;;;;;2312967;58;21162;-77
2022/10/14 01:55:57;;;;;;;38.70;23.55;;;;;;;;;;2313122;58;21072;-76
2022/10/14 02:01:03;;;;;;;35.53;20.48;;;;;;;;;;2363134;53;22126;-77
2022/10/14 02:03:38;;;;;;;36.70;20.58;;;;;;;;;;2346971;57;21113;-76
2022/10/14 02:06:08;;;;;;;40.17;22.42;;;;;;;;;;2370911;54;21621;-77
2022/10/14 02:08:41;;;;;;;39.10;22.60;;;;;;;;;;2320731;58;21031;-77
2022/10/14 02:11:11;;;;;;;39.90;22.92;;;;;;;;;;2320445;58;21558;-77
2022/10/14 02:13:44;;;;;;;37.08;22.87;;;;;;;;;;2371434;54;21021;-76
2022/10/14 02:16:14;;;;;;;40.40;23.33;;;;;;;;;;2319840;58;21112;-77
2022/10/14 02:18:43;;;;;;;42.20;24.77;;;;;;;;;;2320629;58;21044;-77
2022/10/14 02:21:16;;;;;;;52.90;27.58;;;;;;;;;;2320657;58;21036;-78
2022/10/14 02:23:46;;;;;;;42.20;24.25;;;;;;;;;;2321232;58;21091;-79
2022/10/14 02:26:14;;;;;;;46.13;24.92;;;;;;;;;;2321448;58;21056;-78
2022/10/14 02:28:42;;;;;;;48.03;26.23;;;;;;;;;;2320962;58;21048;-78
2022/10/14 02:31:12;;;;;;;46.88;24.83;;;;;;;;;;2336345;54;21067;-78
2022/10/14 02:33:40;;;;;;;44.25;24.02;;;;;;;;;;2411736;54;21099;-78
2022/10/14 02:36:08;;;;;;;48.65;25.70;;;;;;;;;;2351890;54;21606;-78
2022/10/14 02:38:35;;;;;;;48.00;24.63;;;;;;;;;;2320891;58;21546;-78
2022/10/14 02:41:04;;;;;;;46.70;27.23;;;;;;;;;;2355608;54;21068;-77
2022/10/14 02:43:31;;;;;;;49.97;26.80;;;;;;;;;;2321080;58;21068;-78
2022/10/14 02:46:00;;;;;;;47.33;25.23;;;;;;;;;;2320891;58;21024;-78
2022/10/14 02:48:27;;;;;;;43.87;24.75;;;;;;;;;;2321016;58;21032;-77
2022/10/14 02:50:54;;;;;;;45.05;22.70;;;;;;;;;;2320756;58;21068;-78
2022/10/14 02:53:21;;;;;;;46.25;24.35;;;;;;;;;;2321464;58;21036;-78
2022/10/14 02:55:48;;;;;;;43.78;23.73;;;;;;;;;;2321473;58;21048;-77
2022/10/14 02:58:15;;;;;;;45.00;24.70;;;;;;;;;;2320635;58;21574;-78
2022/10/14 03:00:42;;;;;;;48.20;24.42;;;;;;;;;;2320649;58;21127;-77
2022/10/14 03:03:09;;;;;;;40.60;23.10;;;;;;;;;;2360704;54;21052;-77
2022/10/14 03:05:36;;;;;;;39.80;23.20;;;;;;;;;;2320930;58;21139;-77
2022/10/14 03:08:03;;;;;;;45.47;23.92;;;;;;;;;;2321237;58;21079;-78
2022/10/14 03:10:30;;;;;;;42.97;23.80;;;;;;;;;;2386641;54;21115;-78
2022/10/14 03:12:57;;;;;;;47.08;23.75;;;;;;;;;;2319610;58;21123;-78
2022/10/14 03:15:24;;;;;;;39.80;23.30;;;;;;;;;;2319242;58;21056;-78
2022/10/14 03:17:51;;;;;;;43.90;24.33;;;;;;;;;;2373422;54;21060;-78
2022/10/14 03:20:18;;;;;;;42.45;23.33;;;;;;;;;;2366273;54;21633;-78
2022/10/14 03:22:45;;;;;;;46.08;25.67;;;;;;;;;;2320204;58;21071;-78
2022/10/14 03:25:12;;;;;;;45.25;25.62;;;;;;;;;;2320321;58;21111;-78
2022/10/14 03:27:39;;;;;;;45.28;23.08;;;;;;;;;;2320295;58;21075;-78
2022/10/14 03:30:08;;;;;;;40.15;23.87;;;;;;;;;;2320048;58;21344;-79
2022/10/14 03:32:35;;;;;;;41.20;23.33;;;;;;;;;;2317338;58;21075;-78
2022/10/14 03:35:02;;;;;;;39.83;21.15;;;;;;;;;;2319088;58;21131;-78
2022/10/14 03:37:29;;;;;;;44.55;24.23;;;;;;;;;;2332482;54;21095;-78
2022/10/14 03:39:56;;;;;;;44.60;24.33;;;;;;;;;;2344766;54;21041;-78
2022/10/14 03:42:23;;;;;;;48.80;25.00;;;;;;;;;;2353961;54;21044;-78
2022/10/14 03:44:50;;;;;;;43.20;23.17;;;;;;;;;;2320362;58;21047;-78
2022/10/14 03:47:17;;;;;;;42.75;24.42;;;;;;;;;;2324329;54;21052;-78
2022/10/14 03:49:44;;;;;;;44.08;23.90;;;;;;;;;;2319802;58;21052;-78
2022/10/14 03:52:11;;;;;;;47.88;23.87;;;;;;;;;;2320064;58;22375;-78
2022/10/14 03:54:38;;;;;;;51.85;25.17;;;;;;;;;;2320071;58;21099;-78
2022/10/14 03:57:05;;;;;;;37.50;20.98;;;;;;;;;;2337416;54;21609;-77
2022/10/14 03:59:32;;;;;;;46.33;25.60;;;;;;;;;;2319321;58;21059;-78
2022/10/14 04:01:59;;;;;;;42.30;23.42;;;;;;;;;;2328303;54;21064;-78
2022/10/14 04:04:26;;;;;;;50.50;24.37;;;;;;;;;;2319120;58;21123;-79
2022/10/14 04:06:53;;;;;;;34.92;17.70;;;;;;;;;;2320082;58;21096;-79
2022/10/14 04:09:20;;;;;;;43.78;22.13;;;;;;;;;;2320667;58;21104;-78
2022/10/14 04:11:47;;;;;;;46.72;24.35;;;;;;;;;;2320030;58;21091;-78
2022/10/14 04:14:14;;;;;;;46.67;22.55;;;;;;;;;;2320493;58;21526;-78
2022/10/14 04:16:41;;;;;;;47.72;24.77;;;;;;;;;;2320343;58;21036;-79
2022/10/14 04:19:08;;;;;;;50.63;24.63;;;;;;;;;;2319775;58;21060;-79
2022/10/14 04:21:35;;;;;;;46.58;25.08;;;;;;;;;;2333523;54;21632;-78
2022/10/14 04:24:02;;;;;;;40.92;23.42;;;;;;;;;;2333899;54;21049;-78
2022/10/14 04:26:29;;;;;;;37.08;20.77;;;;;;;;;;2320121;58;21546;-78
2022/10/14 04:28:56;;;;;;;35.75;19.52;;;;;;;;;;2320513;58;21190;-78
2022/10/14 04:31:23;;;;;;;46.35;22.73;;;;;;;;;;2320073;58;21032;-78
2022/10/14 04:33:50;;;;;;;36.92;20.23;;;;;;;;;;2346144;54;21107;-78
2022/10/14 04:36:17;;;;;;;39.13;20.58;;;;;;;;;;2321217;54;21072;-78
2022/10/14 04:38:44;;;;;;;36.83;20.00;;;;;;;;;;2319120;58;21552;-78
2022/10/14 04:41:11;;;;;;;38.97;19.20;;;;;;;;;;2327720;54;21083;-78
2022/10/14 04:43:38;;;;;;;41.85;22.50;;;;;;;;;;2336538;54;21111;-78
2022/10/14 04:46:05;;;;;;;34.65;18.85;;;;;;;;;;2320283;58;21036;-78
2022/10/14 04:48:33;;;;;;;39.47;21.80;;;;;;;;;;2320083;58;21080;-78
2022/10/14 04:51:00;;;;;;;39.08;22.70;;;;;;;;;;2319281;58;21132;-78
2022/10/14 04:53:27;;;;;;;43.17;20.75;;;;;;;;;;2320390;58;21119;-78
2022/10/14 04:55:53;;;;;;;41.50;23.08;;;;;;;;;;2384748;54;21135;-78
2022/10/14 04:58:20;;;;;;;40.65;22.70;;;;;;;;;;2319304;58;21040;-78
2022/10/14 05:00:47;;;;;;;44.28;22.27;;;;;;;;;;2318807;58;21048;-80
2022/10/14 05:03:14;;;;;;;44.47;21.33;;;;;;;;;;2340884;54;21688;-78
2022/10/14 05:05:41;;;;;;;39.55;21.42;;;;;;;;;;2320127;58;21112;-78
2022/10/14 05:08:08;;;;;;;37.35;20.62;;;;;;;;;;2403525;54;21136;-78
2022/10/14 05:10:36;;;;;;;50.22;24.73;;;;;;;;;;2320325;58;21110;-78
2022/10/14 05:13:03;;;;;;;45.17;23.80;;;;;;;;;;2320468;58;21550;-78
2022/10/14 05:15:30;;;;;;;47.05;24.83;;;;;;;;;;2324839;54;21041;-78
2022/10/14 05:17:57;;;;;;;48.92;24.80;;;;;;;;;;2385678;54;21051;-78
2022/10/14 05:20:24;;;;;;;46.63;23.00;;;;;;;;;;2320498;58;21048;-78
2022/10/14 05:22:51;;;;;;;44.35;24.27;;;;;;;;;;2320006;58;21056;-78
2022/10/14 05:25:18;;;;;;;52.62;27.13;;;;;;;;;;2320107;58;21068;-78
2022/10/14 05:27:45;;;;;;;53.13;25.10;;;;;;;;;;2320470;58;21115;-78
2022/10/14 05:30:13;;;;;;;54.90;27.23;;;;;;;;;;2319912;58;21143;-78
2022/10/14 05:32:40;;;;;;;53.65;25.70;;;;;;;;;;2320593;58;21067;-78
2022/10/14 05:35:08;;;;;;;49.80;23.77;;;;;;;;;;2319911;58;21570;-78
2022/10/14 05:37:35;;;;;;;49.13;24.15;;;;;;;;;;2320627;58;21146;-78
2022/10/14 05:40:03;;;;;;;57.53;26.83;;;;;;;;;;2320525;58;21044;-78
2022/10/14 05:42:30;;;;;;;61.85;28.62;;;;;;;;;;2320045;58;21566;-78
2022/10/14 05:44:57;;;;;;;40.83;20.35;;;;;;;;;;2325723;54;21034;-78
2022/10/14 05:47:24;;;;;;;45.90;23.17;;;;;;;;;;2320602;58;21047;-78
2022/10/14 05:49:51;;;;;;;44.25;22.02;;;;;;;;;;2429353;54;21611;-78
2022/10/14 05:52:18;;;;;;;54.35;24.48;;;;;;;;;;2320030;58;21055;-78
2022/10/14 05:54:45;;;;;;;45.03;23.05;;;;;;;;;;2342339;54;21095;-78
2022/10/14 05:57:12;;;;;;;42.78;20.00;;;;;;;;;;2320608;58;21100;-77
2022/10/14 05:59:39;;;;;;;48.92;22.45;;;;;;;;;;2368817;54;21123;-79
2022/10/14 06:02:07;;;;;;;47.62;23.00;;;;;;;;;;2407228;54;21044;-78
2022/10/14 06:04:35;;;;;;;42.03;20.50;;;;;;;;;;2320758;58;21099;-78
2022/10/14 06:07:02;;;;;;;44.17;21.80;;;;;;;;;;2320603;58;21092;-78
2022/10/14 06:09:31;;;;;;;60.38;25.58;;;;;;;;;;2320007;58;21040;-78
2022/10/14 06:11:58;;;;;;;47.35;21.45;;;;;;;;;;2319387;58;21067;-78
2022/10/14 06:14:25;;;;;;;50.63;24.02;;;;;;;;;;2320346;58;21040;-78
2022/10/14 06:16:52;;;;;;;54.15;24.67;;;;;;;;;;2320652;58;21633;-78
2022/10/14 06:19:19;;;;;;;69.40;26.87;;;;;;;;;;2320605;58;21100;-78
2022/10/14 06:21:46;;;;;;;58.42;26.50;;;;;;;;;;2320534;58;21649;-78
2022/10/14 06:24:13;;;;;;;52.92;23.27;;;;;;;;;;2320057;58;21108;-78
2022/10/14 06:26:41;;;;;;;54.63;24.30;;;;;;;;;;2319885;58;21139;-78
2022/10/14 06:29:08;;;;;;;56.50;25.80;;;;;;;;;;2320294;58;21040;-79
2022/10/14 06:31:35;;;;;;;55.60;24.95;;;;;;;;;;2319953;58;21051;-78
2022/10/14 06:34:05;;;;;;;60.67;25.75;;;;;;;;;;2320363;58;21099;-78
2022/10/14 06:36:32;;;;;;;51.05;23.17;;;;;;;;;;2322302;54;21033;-78
2022/10/14 06:38:59;;;;;;;51.08;22.60;;;;;;;;;;2319783;58;21139;-78
2022/10/14 06:41:26;;;;;;;58.00;23.15;;;;;;;;;;2319248;58;21052;-78
2022/10/14 06:43:53;;;;;;;53.20;23.20;;;;;;;;;;2319279;58;21122;-78
2022/10/14 06:46:20;;;;;;;51.40;24.33;;;;;;;;;;2478936;52;21107;-75
2022/10/14 06:48:47;;;;;;;57.20;25.08;;;;;;;;;;2373554;56;21059;-76
2022/10/14 06:51:14;;;;;;;57.92;26.48;;;;;;;;;;2373846;56;21035;-76
2022/10/14 06:53:42;;;;;;;55.28;25.00;;;;;;;;;;2374079;56;21043;-76
2022/10/14 06:56:10;;;;;;;60.55;26.23;;;;;;;;;;2369851;56;21895;-76
2022/10/14 06:58:38;;;;;;;54.65;24.80;;;;;;;;;;2371869;56;21605;-76
2022/10/14 07:01:06;;;;;;;56.30;25.42;;;;;;;;;;2371761;56;21048;-76
2022/10/14 07:03:35;;;;;;;54.58;24.80;;;;;;;;;;2371396;56;21186;-76
2022/10/14 07:06:03;;;;;;;65.03;26.70;;;;;;;;;;2372844;56;21052;-76
2022/10/14 07:08:30;;;;;;;58.53;26.67;;;;;;;;;;2374191;56;21099;-76
2022/10/14 07:10:57;;;;;;;57.67;26.70;;;;;;;;;;2372471;56;21569;-76
2022/10/14 07:13:25;;;;;;;52.60;26.15;;;;;;;;;;2374287;56;21040;-76
2022/10/14 07:15:52;;;;;;;50.20;24.60;;;;;;;;;;2372284;56;21060;-76
2022/10/14 07:18:19;;;;;;;57.58;26.08;;;;;;;;;;2372709;56;21012;-76
2022/10/14 07:20:46;;;;;;;57.22;26.67;;;;;;;;;;2372416;56;21043;-76
2022/10/14 07:23:13;;;;;;;48.92;24.67;;;;;;;;;;2373423;56;21099;-75
2022/10/14 07:25:40;;;;;;;49.33;24.08;;;;;;;;;;2371987;56;21056;-76
2022/10/14 07:28:07;;;;;;;49.65;25.12;;;;;;;;;;2373196;56;21032;-75
2022/10/14 07:30:34;;;;;;;49.53;25.40;;;;;;;;;;2372609;56;21103;-76
2022/10/14 07:33:01;;;;;;;47.40;25.48;;;;;;;;;;2373140;56;21077;-76
2022/10/14 07:35:29;;;;;;;48.13;25.25;;;;;;;;;;2372774;56;21099;-76
2022/10/14 07:37:57;;;;;;;52.80;26.42;;;;;;;;;;2372837;56;21579;-76
2022/10/14 07:40:24;;;;;;;53.47;26.45;;;;;;;;;;2371674;56;21048;-76
2022/10/14 07:42:51;;;;;;;48.92;25.40;;;;;;;;;;2371622;56;21115;-76
2022/10/14 07:45:20;;;;;;;48.30;26.52;;;;;;;;;;2372429;56;21020;-76
2022/10/14 07:47:48;;;;;;;43.97;24.17;;;;;;;;;;2370131;56;21049;-76
2022/10/14 07:50:15;;;;;;;53.50;26.35;;;;;;;;;;2373954;56;21111;-76
2022/10/14 07:52:42;;;;;;;46.80;25.42;;;;;;;;;;2373684;56;21558;-76
2022/10/14 07:55:09;;;;;;;49.38;25.75;;;;;;;;;;2373045;56;21111;-76
2022/10/14 07:57:36;;;;;;;50.97;27.23;;;;;;;;;;2627017;52;21111;-75
2022/10/14 08:00:04;;;;;;;50.92;25.88;;;;;;;;;;2374031;56;21032;-76
2022/10/14 08:02:31;;;;;;;58.40;25.98;;;;;;;;;;2372349;56;21080;-76
2022/10/14 08:04:58;;;;;;;52.97;27.80;;;;;;;;;;2373613;56;21052;-76
2022/10/14 08:07:25;;;;;;;52.17;26.83;;;;;;;;;;2374179;56;21182;-76
2022/10/14 08:09:53;;;;;;;48.80;27.17;;;;;;;;;;2374393;56;21111;-76
2022/10/14 08:12:20;;;;;;;46.83;26.23;;;;;;;;;;2372269;56;21119;-76
2022/10/14 08:14:47;;;;;;;48.72;27.30;;;;;;;;;;2373844;56;21624;-76
2022/10/14 08:17:14;;;;;;;48.13;26.05;;;;;;;;;;2374127;56;21036;-76
2022/10/14 08:19:41;;;;;;;47.22;26.25;;;;;;;;;;2372909;56;21135;-76
2022/10/14 08:22:08;;;;;;;47.65;27.02;;;;;;;;;;2627134;52;21114;-76
2022/10/14 08:24:35;;;;;;;48.15;25.77;;;;;;;;;;2373609;56;21072;-76
2022/10/14 08:27:04;;;;;;;42.55;23.87;;;;;;;;;;2373517;56;21048;-76
2022/10/14 08:29:31;;;;;;;46.63;24.35;;;;;;;;;;2372701;56;21115;-76
2022/10/14 08:31:58;;;;;;;44.10;23.87;;;;;;;;;;2373109;56;21115;-77
2022/10/14 08:34:25;;;;;;;46.17;24.58;;;;;;;;;;2374057;56;21120;-76
2022/10/14 08:36:52;;;;;;;46.37;24.73;;;;;;;;;;2373983;56;21072;-77
2022/10/14 08:39:19;;;;;;;40.22;24.23;;;;;;;;;;2373754;56;21043;-77
2022/10/14 08:42:06;;;;;;;39.13;23.52;;;;;;;;;;2373635;56;21107;-77
2022/10/14 08:44:40;;;;;;;41.50;24.77;;;;;;;;;;2373263;56;21044;-77
2022/10/14 08:47:11;;;;;;;40.97;23.08;;;;;;;;;;2373538;56;21418;-77
2022/10/14 08:49:44;;;;;;;41.90;23.85;;;;;;;;;;2373758;56;21108;-77
2022/10/14 08:52:13;;;;;;;41.33;24.40;;;;;;;;;;2373417;56;21060;-77
2022/10/14 08:54:43;;;;;;;41.92;23.90;;;;;;;;;;2373222;56;21035;-77
2022/10/14 08:57:14;;;;;;;41.40;24.23;;;;;;;;;;2373603;56;21084;-77
2022/10/14 08:59:41;;;;;;;42.83;23.87;;;;;;;;;;2374011;56;21103;-76
2022/10/14 09:02:15;;;;;;;41.42;22.65;;;;;;;;;;2373849;56;21620;-77
2022/10/14 09:04:42;;;;;;;36.85;21.65;;;;;;;;;;2373427;56;21092;-77
2022/10/14 09:07:12;;;;;;;39.28;23.70;;;;;;;;;;2374046;56;21091;-76
2022/10/14 09:09:40;;;;;;;43.08;24.70;;;;;;;;;;2373311;56;21075;-77
2022/10/14 09:12:17;;;;;;;40.55;23.75;;;;;;;;;;2373219;56;21036;-77
2022/10/14 09:14:47;;;;;;;40.47;23.02;;;;;;;;;;2373998;56;21429;-77
2022/10/14 09:17:17;;;;;;;42.60;25.05;;;;;;;;;;2373833;56;21043;-77
2022/10/14 09:19:46;;;;;;;36.22;21.95;;;;;;;;;;2373876;56;21040;-77
2022/10/14 09:22:14;;;;;;;40.42;24.10;;;;;;;;;;2373440;56;21035;-76
2022/10/14 09:24:44;;;;;;;36.42;21.42;;;;;;;;;;2373779;56;21171;-77
2022/10/14 09:27:13;;;;;;;35.70;21.40;;;;;;;;;;2373771;56;21075;-76
2022/10/14 09:29:42;;;;;;;40.45;22.25;;;;;;;;;;2373595;56;21030;-77
2022/10/14 09:32:13;;;;;;;33.35;20.30;;;;;;;;;;2373893;56;21043;-77
2022/10/14 09:34:41;;;;;;;31.65;20.08;;;;;;;;;;2373928;56;21110;-77
2022/10/14 09:37:22;;;;;;;31.02;19.48;;;;;;;;;;2373951;56;21350;-77
2022/10/14 09:39:50;;;;;;;29.70;19.23;;;;;;;;;;2373719;56;21056;-77
2022/10/14 09:42:19;;;;;;;34.15;19.48;;;;;;;;;;2373049;56;21044;-76
2022/10/14 09:45:02;;;;;;;29.25;18.08;;;;;;;;;;2373989;56;21625;-76
2022/10/14 09:47:29;;;;;;;29.73;17.87;;;;;;;;;;2372946;56;21617;-77
2022/10/14 09:49:59;;;;;;;25.25;16.62;;;;;;;;;;2374107;56;21020;-77
2022/10/14 09:52:28;;;;;;;30.33;17.50;;;;;;;;;;2373658;56;21041;-76
2022/10/14 09:54:57;;;;;;;24.52;15.85;;;;;;;;;;2373724;56;21523;-77
2022/10/14 09:57:25;;;;;;;27.15;17.80;;;;;;;;;;2374435;56;21103;-77
2022/10/14 09:59:55;;;;;;;29.12;16.77;;;;;;;;;;2373448;56;21051;-77
2022/10/14 10:02:23;;;;;;;24.50;16.25;;;;;;;;;;2373799;56;21546;-76
2022/10/14 10:04:51;;;;;;;23.83;16.23;;;;;;;;;;2372890;56;21079;-77
2022/10/14 10:10:00;;;;;;;23.60;14.57;;;;;;;;;;2355857;57;22690;-76
2022/10/14 10:12:29;;;;;;;20.70;13.88;;;;;;;;;;2346986;57;21022;-76
2022/10/14 10:14:57;;;;;;;25.48;14.98;;;;;;;;;;2346758;57;21529;-76
2022/10/14 10:17:26;;;;;;;21.83;14.55;;;;;;;;;;2346434;57;21527;-76
2022/10/14 10:20:06;;;;;;;22.58;14.93;;;;;;;;;;2345953;57;21058;-76
2022/10/14 10:22:37;;;;;;;22.55;13.93;;;;;;;;;;2592177;53;21042;-76
2022/10/14 10:25:27;;;;;;;22.08;13.85;;;;;;;;;;2591947;53;21132;-76
2022/10/14 10:27:57;;;;;;;25.88;15.38;;;;;;;;;;2345943;57;21053;-76
2022/10/14 10:30:26;;;;;;;23.27;15.13;;;;;;;;;;2345833;57;21046;-77
2022/10/14 10:33:02;;;;;;;31.17;15.48;;;;;;;;;;2345821;57;21520;-76
2022/10/14 10:35:32;;;;;;;26.65;15.90;;;;;;;;;;2344791;57;21110;-77
2022/10/14 10:38:05;;;;;;;25.17;15.85;;;;;;;;;;2346034;57;21101;-76
2022/10/14 10:40:34;;;;;;;21.67;15.17;;;;;;;;;;2346334;57;21109;-77
2022/10/14 10:43:08;;;;;;;23.48;14.10;;;;;;;;;;2346201;57;21090;-76
2022/10/14 10:45:41;;;;;;;24.50;15.10;;;;;;;;;;2345938;57;21109;-77
2022/10/14 10:48:13;;;;;;;25.00;16.52;;;;;;;;;;2345744;57;21038;-77
2022/10/14 10:50:43;;;;;;;26.27;17.35;;;;;;;;;;2345725;57;21667;-76
2022/10/14 10:53:29;;;;;;;28.92;18.58;;;;;;;;;;2345428;57;21045;-76
2022/10/14 10:56:04;;;;;;;27.52;17.17;;;;;;;;;;2345920;57;21054;-76
2022/10/14 10:58:39;;;;;;;26.83;16.77;;;;;;;;;;2346001;57;21050;-75
2022/10/14 11:01:15;;;;;;;26.62;16.33;;;;;;;;;;2345794;57;21517;-76
2022/10/14 11:03:53;;;;;;;25.83;15.52;;;;;;;;;;2345853;57;21536;-76
2022/10/14 11:12:06;;;;;;;23.23;14.63;;;;;;;;;;2345786;57;21116;-76
2022/10/14 11:14:37;;;;;;;24.27;15.68;;;;;;;;;;2346353;57;21038;-76
2022/10/14 11:17:08;;;;;;;25.58;15.10;;;;;;;;;;2345900;57;21042;-76
2022/10/14 11:19:39;;;;;;;25.30;13.82;;;;;;;;;;2345651;57;21106;-76
2022/10/14 11:22:10;;;;;;;24.08;14.65;;;;;;;;;;2344036;57;21034;-77
2022/10/14 11:24:42;;;;;;;27.08;15.65;;;;;;;;;;2344909;57;21058;-76
2022/10/14 11:27:11;;;;;;;23.92;15.25;;;;;;;;;;2342641;57;21042;-76
2022/10/14 11:29:56;;;;;;;21.42;14.60;;;;;;;;;;2343312;57;21050;-76
2022/10/14 11:32:26;;;;;;;26.23;16.62;;;;;;;;;;2342796;57;21101;-76
2022/10/14 11:34:58;;;;;;;25.05;15.63;;;;;;;;;;2344875;57;22172;-77
2022/10/14 11:37:29;;;;;;;30.53;15.67;;;;;;;;;;2345455;57;21046;-76
2022/10/14 11:39:57;;;;;;;26.20;15.48;;;;;;;;;;2343154;57;21026;-77
2022/10/14 11:42:27;;;;;;;25.52;15.98;;;;;;;;;;2341725;57;21054;-77
2022/10/14 11:45:01;;;;;;;26.08;15.60;;;;;;;;;;2341442;57;21387;-76
2022/10/14 11:47:31;;;;;;;25.02;15.80;;;;;;;;;;2343606;57;21177;-76
2022/10/14 11:49:59;;;;;;;23.40;15.65;;;;;;;;;;2343530;57;21110;-75
2022/10/14 11:52:28;;;;;;;27.90;15.27;;;;;;;;;;2343626;57;21058;-77
2022/10/14 11:54:57;;;;;;;20.52;12.60;;;;;;;;;;2344042;57;21540;-77
2022/10/14 11:57:29;;;;;;;17.60;12.48;;;;;;;;;;2343642;57;21054;-77
2022/10/14 12:00:14;;;;;;;20.40;12.43;;;;;;;;;;2342846;57;21548;-77
2022/10/14 12:02:45;;;;;;;19.75;12.70;;;;;;;;;;2590158;53;21639;-77
2022/10/14 12:05:17;;;;;;;19.55;12.25;;;;;;;;;;2344154;57;21030;-77
2022/10/14 12:07:47;;;;;;;21.25;13.68;;;;;;;;;;2344169;57;21058;-77
2022/10/14 12:10:19;;;;;;;29.58;14.75;;;;;;;;;;2343937;57;21112;-77
2022/10/14 12:12:47;;;;;;;19.95;13.02;;;;;;;;;;2343580;57;21553;-77
2022/10/14 12:15:17;;;;;;;22.35;13.90;;;;;;;;;;2343849;57;21716;-77
2022/10/14 12:17:46;;;;;;;19.40;13.27;;;;;;;;;;2343673;57;21125;-77
2022/10/14 12:20:18;;;;;;;18.90;13.25;;;;;;;;;;2344296;57;21066;-76
2022/10/14 12:22:47;;;;;;;18.95;12.85;;;;;;;;;;2343392;57;21061;-77
2022/10/14 12:25:16;;;;;;;19.83;13.52;;;;;;;;;;2344123;57;21038;-77
2022/10/14 12:27:43;;;;;;;18.77;12.23;;;;;;;;;;2344009;57;21050;-77
2022/10/14 12:33:06;;;;;;;17.05;10.48;;;;;;;;;;2327395;57;22083;-76
2022/10/14 12:35:47;;;;;;;19.83;12.75;;;;;;;;;;2346333;57;21042;-77
2022/10/14 12:38:14;;;;;;;18.48;11.68;;;;;;;;;;2594211;53;21093;-82
2022/10/14 12:40:41;;;;;;;16.60;11.40;;;;;;;;;;2594832;53;21054;-84
2022/10/14 12:43:16;;;;;;;18.58;12.35;;;;;;;;;;2347753;57;21065;-82
2022/10/14 12:45:48;;;;;;;19.05;11.82;;;;;;;;;;2365682;53;72612;-77
2022/10/14 12:48:18;;;;;;;17.83;11.27;;;;;;;;;;2292597;58;22246;-77
2022/10/14 12:50:45;;;;;;;21.45;12.93;;;;;;;;;;2353745;54;21062;-75
2022/10/14 12:53:22;;;;;;;19.33;11.05;;;;;;;;;;2294113;58;21071;-76
2022/10/14 12:55:50;;;;;;;16.45;11.30;;;;;;;;;;2505216;54;21517;-77
2022/10/14 12:58:26;;;;;;;16.33;10.85;;;;;;;;;;2373302;54;21059;-76
2022/10/14 13:00:58;;;;;;;18.25;11.55;;;;;;;;;;2320178;58;21055;-76
2022/10/14 13:03:26;;;;;;;14.65;10.27;;;;;;;;;;2319635;58;21043;-77
2022/10/14 13:05:53;;;;;;;15.95;10.45;;;;;;;;;;2317361;54;21052;-77
2022/10/14 13:11:10;;;;;;;13.65;9.38;;;;;;;;;;2452733;53;22089;-77
2022/10/14 13:14:08;;;;;;;11.57;7.57;;;;;;;;;;2345770;57;21621;-76
2022/10/14 13:17:10;;;;;;;10.82;7.57;;;;;;;;;;2252075;58;21071;-77
2022/10/14 13:19:44;;;;;;;11.82;8.07;;;;;;;;;;2320190;58;21115;-77
2022/10/14 13:22:30;;;;;;;11.68;8.45;;;;;;;;;;2319224;58;21609;-77
2022/10/14 13:27:40;;;;;;;12.80;8.05;;;;;;;;;;2405823;53;22102;-76
2022/10/14 13:30:13;;;;;;;12.37;8.27;;;;;;;;;;2346618;57;21105;-76
2022/10/14 13:32:42;;;;;;;13.38;8.20;;;;;;;;;;2346299;57;21045;-76
2022/10/14 13:35:14;;;;;;;10.23;7.47;;;;;;;;;;2362907;56;21188;-74
2022/10/14 13:37:44;;;;;;;12.75;7.90;;;;;;;;;;2372502;56;21142;-75
2022/10/14 13:40:20;;;;;;;11.48;7.80;;;;;;;;;;2374378;56;21751;-74
2022/10/14 13:42:49;;;;;;;10.13;7.12;;;;;;;;;;2373839;56;21130;-74
2022/10/14 13:45:16;;;;;;;10.20;7.28;;;;;;;;;;2373981;56;21664;-75
2022/10/14 13:47:46;;;;;;;9.07;6.30;;;;;;;;;;2463397;52;21658;-76
2022/10/14 13:50:16;;;;;;;9.05;6.30;;;;;;;;;;2374597;56;21063;-76
2022/10/14 13:52:47;;;;;;;8.40;6.10;;;;;;;;;;2373903;56;21094;-75
2022/10/14 13:55:15;;;;;;;9.07;6.05;;;;;;;;;;2374207;56;21671;-77
2022/10/14 13:57:42;;;;;;;9.65;5.68;;;;;;;;;;2374376;56;21106;-76
2022/10/14 14:00:22;;;;;;;9.40;6.37;;;;;;;;;;2374464;56;21051;-77
2022/10/14 14:02:49;;;;;;;9.90;7.57;;;;;;;;;;2374244;56;21063;-78
2022/10/14 14:05:18;;;;;;;9.77;6.40;;;;;;;;;;2372341;56;21106;-78
2022/10/14 14:07:46;;;;;;;10.80;6.50;;;;;;;;;;2374336;56;21665;-77
2022/10/14 14:10:17;;;;;;;9.68;7.28;;;;;;;;;;2372854;56;21573;-76
2022/10/14 14:12:44;;;;;;;11.12;7.43;;;;;;;;;;2373701;56;21114;-77
2022/10/14 14:15:17;;;;;;;13.05;8.38;;;;;;;;;;2573808;52;21054;-78
2022/10/14 14:17:44;;;;;;;10.48;7.72;;;;;;;;;;2374773;56;21046;-77
2022/10/14 14:20:11;;;;;;;11.68;7.37;;;;;;;;;;2432324;52;21047;-78
2022/10/14 14:22:41;;;;;;;10.38;7.68;;;;;;;;;;2578755;52;21142;-81
2022/10/14 14:25:15;;;;;;;13.43;8.20;;;;;;;;;;2373999;56;21582;-79
2022/10/14 14:27:47;;;;;;;9.82;7.15;;;;;;;;;;2370009;56;21606;-79
2022/10/14 14:30:21;;;;;;;9.20;6.90;;;;;;;;;;2372504;56;21095;-78
2022/10/14 14:32:48;;;;;;;10.43;6.80;;;;;;;;;;2373065;56;21581;-78
2022/10/14 14:35:18;;;;;;;9.32;5.90;;;;;;;;;;2373478;56;21125;-77
2022/10/14 14:37:45;;;;;;;7.30;6.05;;;;;;;;;;2373310;56;21106;-77
2022/10/14 14:40:17;;;;;;;9.02;5.75;;;;;;;;;;2372272;56;21557;-77
2022/10/14 14:42:45;;;;;;;9.02;5.93;;;;;;;;;;2371947;56;21027;-77
2022/10/14 14:45:15;;;;;;;7.15;5.15;;;;;;;;;;2370758;56;21517;-77
2022/10/14 14:47:43;;;;;;;8.65;5.75;;;;;;;;;;2374815;52;21118;-78
2022/10/14 14:50:12;;;;;;;9.30;5.87;;;;;;;;;;2372618;56;21055;-77